Time;durP1;ratioP1;P1;durP2;ratioP2;P2;SDS_P1;SDS_P2;PMS_P1;PMS_P2;Temp;Humidity;BMP_temperature;BMP_pressure;BME280_temperature;BME280_humidity;BME280_pressure;Samples;Min_cycle;Max_cycle;Signal;HPM_P1;HPM_P2
2022/02/13 00:01:45;;;;;;;7.50;4.30;;;2.60;1.00;;;;;;5076323;28;20198;-57
2022/02/13 00:04:13;;;;;;;8.63;3.87;;;2.50;1.00;;;;;;5083229;28;20685;-56
2022/02/13 00:06:40;;;;;;;7.40;3.80;;;2.50;1.00;;;;;;5062685;28;20730;-56
2022/02/13 00:09:08;;;;;;;9.43;4.30;;;2.50;1.00;;;;;;5062587;28;20815;-58
2022/02/13 00:11:34;;;;;;;6.40;4.07;;;2.40;1.00;;;;;;5081278;28;20264;-56
2022/02/13 00:14:01;;;;;;;7.40;4.70;;;2.50;1.00;;;;;;5082267;28;20215;-55
2022/02/13 00:16:28;;;;;;;8.23;4.17;;;2.40;1.00;;;;;;5083057;28;20572;-55
2022/02/13 00:18:55;;;;;;;7.67;4.30;;;2.40;1.00;;;;;;5084891;28;20279;-59
2022/02/13 00:21:42;;;;;;;7.03;3.97;;;2.40;1.00;;;;;;5079157;28;20203;-55
2022/02/13 00:24:09;;;;;;;9.23;4.43;;;2.40;1.00;;;;;;5084395;28;20245;-58
2022/02/13 00:26:36;;;;;;;8.93;5.07;;;2.40;1.00;;;;;;5063974;28;20355;-56
2022/02/13 00:29:03;;;;;;;7.23;4.23;;;2.40;1.00;;;;;;5080127;28;20607;-55
2022/02/13 00:31:30;;;;;;;9.43;4.70;;;2.40;1.00;;;;;;5080123;28;22068;-56
2022/02/13 00:33:57;;;;;;;12.97;5.40;;;2.30;1.00;;;;;;5083589;28;20205;-57
2022/02/13 00:36:24;;;;;;;7.50;4.53;;;2.30;1.00;;;;;;5063648;28;20594;-56
2022/02/13 00:38:51;;;;;;;9.53;4.83;;;2.40;1.00;;;;;;5083176;28;20551;-56
2022/02/13 00:41:18;;;;;;;6.17;4.13;;;2.40;1.00;;;;;;5062840;28;20290;-56
2022/02/13 00:43:45;;;;;;;7.20;4.77;;;2.40;1.00;;;;;;5080042;28;20529;-58
2022/02/13 00:46:12;;;;;;;11.87;5.57;;;2.40;1.00;;;;;;5059224;28;20210;-55
2022/02/13 00:48:39;;;;;;;7.80;4.03;;;2.40;1.00;;;;;;5080801;28;20205;-57
2022/02/13 00:51:05;;;;;;;7.33;4.17;;;2.40;1.00;;;;;;5061533;28;20766;-56
2022/02/13 00:53:32;;;;;;;12.13;4.27;;;2.40;1.00;;;;;;5077345;28;20207;-54
2022/02/13 00:55:59;;;;;;;6.83;3.67;;;2.30;1.00;;;;;;5078309;28;20204;-55
2022/02/13 00:58:28;;;;;;;8.60;4.07;;;2.30;1.00;;;;;;5081060;28;20198;-57
2022/02/13 01:00:55;;;;;;;5.93;4.00;;;2.30;1.00;;;;;;5077785;28;20567;-57
2022/02/13 01:03:22;;;;;;;8.17;4.53;;;2.30;1.00;;;;;;5082356;28;20207;-56
2022/02/13 01:05:49;;;;;;;5.90;3.27;;;2.30;1.00;;;;;;5081175;28;20672;-55
2022/02/13 01:08:16;;;;;;;7.37;4.47;;;2.30;1.00;;;;;;5081053;28;20728;-56
2022/02/13 01:10:44;;;;;;;10.23;4.20;;;2.40;1.00;;;;;;5059704;28;20237;-56
2022/02/13 01:13:10;;;;;;;7.73;4.13;;;2.40;1.00;;;;;;5083043;28;20616;-56
2022/02/13 01:15:37;;;;;;;9.33;4.63;;;2.40;1.00;;;;;;5080008;28;20195;-56
2022/02/13 01:18:04;;;;;;;8.07;4.20;;;2.30;1.00;;;;;;5081304;28;20391;-55
2022/02/13 01:20:31;;;;;;;7.77;3.90;;;2.30;1.00;;;;;;5081930;28;20244;-54
2022/02/13 01:22:58;;;;;;;8.40;4.73;;;2.30;1.00;;;;;;5080646;28;20241;-56
2022/02/13 01:25:25;;;;;;;7.87;4.07;;;2.30;1.00;;;;;;5083563;28;20390;-57
2022/02/13 01:27:51;;;;;;;11.17;4.70;;;2.30;1.00;;;;;;5087962;28;20237;-56
2022/02/13 01:30:18;;;;;;;10.57;4.30;;;2.30;1.00;;;;;;5088633;28;20222;-55
2022/02/13 01:32:45;;;;;;;7.93;4.27;;;2.20;1.00;;;;;;5093720;28;20745;-55
2022/02/13 01:35:12;;;;;;;8.27;4.20;;;2.30;1.00;;;;;;5061153;28;20198;-57
2022/02/13 01:37:39;;;;;;;7.63;4.03;;;2.30;1.00;;;;;;5087964;28;20221;-56
2022/02/13 01:40:07;;;;;;;5.70;4.13;;;2.20;1.00;;;;;;5068727;28;20297;-55
2022/02/13 01:42:34;;;;;;;9.50;4.27;;;2.20;1.00;;;;;;5089988;28;20693;-57
2022/02/13 01:45:01;;;;;;;9.03;4.10;;;2.30;1.00;;;;;;5088798;28;20762;-55
2022/02/13 01:47:29;;;;;;;10.27;4.53;;;2.20;1.00;;;;;;5091874;28;20208;-55
2022/02/13 01:49:57;;;;;;;6.63;3.77;;;2.20;1.00;;;;;;5090672;28;20316;-55
2022/02/13 01:52:25;;;;;;;6.97;3.77;;;2.20;1.00;;;;;;5092930;28;20301;-55
2022/02/13 01:54:52;;;;;;;7.70;3.87;;;2.20;1.00;;;;;;5072617;28;20299;-55
2022/02/13 01:57:21;;;;;;;8.47;4.37;;;2.20;1.00;;;;;;5087265;28;20723;-56
2022/02/13 01:59:48;;;;;;;9.17;4.37;;;2.20;1.00;;;;;;5062133;28;20307;-58
2022/02/13 02:02:14;;;;;;;7.80;4.10;;;2.20;1.00;;;;;;5089020;28;20662;-58
2022/02/13 02:04:42;;;;;;;6.57;4.00;;;2.20;1.00;;;;;;5095444;28;20307;-55
2022/02/13 02:07:09;;;;;;;8.10;3.87;;;2.20;1.00;;;;;;5088016;28;20288;-57
2022/02/13 02:09:36;;;;;;;7.63;4.00;;;2.20;1.00;;;;;;5067326;28;20760;-58
2022/02/13 02:12:05;;;;;;;7.30;3.80;;;2.30;1.00;;;;;;5073250;28;20223;-56
2022/02/13 02:14:32;;;;;;;6.97;4.33;;;2.30;1.00;;;;;;5072375;28;20445;-56
2022/02/13 02:16:59;;;;;;;5.63;3.70;;;2.40;1.00;;;;;;5085556;28;20713;-56
2022/02/13 02:19:29;;;;;;;9.10;3.93;;;2.30;1.00;;;;;;5088805;28;20221;-55
2022/02/13 02:21:56;;;;;;;8.37;3.83;;;2.30;1.00;;;;;;5092211;28;20288;-57
2022/02/13 02:24:23;;;;;;;7.20;4.07;;;2.30;1.00;;;;;;5087746;28;20227;-55
2022/02/13 02:26:50;;;;;;;6.73;3.37;;;2.30;1.00;;;;;;5089142;28;20258;-56
2022/02/13 02:29:17;;;;;;;8.30;3.90;;;2.30;1.00;;;;;;5074481;28;20252;-57
2022/02/13 02:31:45;;;;;;;8.73;3.70;;;2.40;1.00;;;;;;5089291;28;20684;-55
2022/02/13 02:34:12;;;;;;;6.37;3.80;;;2.30;1.00;;;;;;5071565;28;20693;-56
2022/02/13 02:36:39;;;;;;;7.10;3.17;;;2.30;1.00;;;;;;5088947;28;20225;-55
2022/02/13 02:39:06;;;;;;;6.13;3.73;;;2.30;1.00;;;;;;5092237;28;20481;-58
2022/02/13 02:41:33;;;;;;;7.37;3.53;;;2.30;1.00;;;;;;5085074;28;20293;-57
2022/02/13 02:44:00;;;;;;;7.03;3.43;;;2.30;1.00;;;;;;5090910;28;20210;-55
2022/02/13 02:46:27;;;;;;;9.80;3.63;;;2.30;1.00;;;;;;5093598;28;20233;-58
2022/02/13 02:48:55;;;;;;;6.63;3.70;;;2.30;1.00;;;;;;5096659;28;20279;-55
2022/02/13 02:51:22;;;;;;;4.37;3.40;;;2.30;1.00;;;;;;5088888;28;20237;-55
2022/02/13 02:53:49;;;;;;;7.27;4.30;;;2.20;1.00;;;;;;5088522;28;20296;-57
2022/02/13 02:56:16;;;;;;;7.20;3.87;;;2.20;1.00;;;;;;5092541;28;20295;-57
2022/02/13 02:58:43;;;;;;;6.83;4.03;;;2.20;1.00;;;;;;5091148;28;20662;-57
2022/02/13 03:01:09;;;;;;;6.23;3.40;;;2.20;1.00;;;;;;5079656;28;20201;-56
2022/02/13 03:03:36;;;;;;;4.90;3.30;;;2.20;1.00;;;;;;5092655;28;20677;-55
2022/02/13 03:06:03;;;;;;;7.97;3.87;;;2.20;1.00;;;;;;5090898;28;20273;-57
2022/02/13 03:08:30;;;;;;;5.13;3.67;;;2.10;1.00;;;;;;5093876;28;20217;-58
2022/02/13 03:10:57;;;;;;;4.63;3.77;;;2.20;1.00;;;;;;5091759;28;20295;-56
2022/02/13 03:13:26;;;;;;;5.13;3.53;;;2.10;1.00;;;;;;5094404;28;20259;-56
2022/02/13 03:15:53;;;;;;;5.33;3.43;;;2.10;1.00;;;;;;5091200;28;20540;-56
2022/02/13 03:18:20;;;;;;;6.67;4.10;;;2.00;1.00;;;;;;5093097;28;20700;-55
2022/02/13 03:20:48;;;;;;;6.97;4.23;;;2.00;1.00;;;;;;5076925;28;20287;-55
2022/02/13 03:23:16;;;;;;;5.47;3.53;;;2.00;1.00;;;;;;5079963;28;20231;-56
2022/02/13 03:25:44;;;;;;;5.90;3.13;;;2.00;1.00;;;;;;5091823;28;20202;-56
2022/02/13 03:28:10;;;;;;;10.73;3.97;;;1.90;1.00;;;;;;5076441;28;20236;-56
2022/02/13 03:30:37;;;;;;;8.10;4.43;;;2.00;1.00;;;;;;5090087;28;20785;-56
2022/02/13 03:33:04;;;;;;;5.57;3.73;;;1.90;1.00;;;;;;5091273;28;20248;-56
2022/02/13 03:35:31;;;;;;;5.67;3.80;;;2.00;1.00;;;;;;5093433;28;20665;-55
2022/02/13 03:37:58;;;;;;;4.33;3.40;;;1.90;1.00;;;;;;5091996;28;20208;-55
2022/02/13 03:40:25;;;;;;;7.80;4.37;;;1.90;1.00;;;;;;5092451;28;20193;-56
2022/02/13 03:42:52;;;;;;;4.93;3.80;;;1.90;1.00;;;;;;5073193;28;20230;-56
2022/02/13 03:45:19;;;;;;;5.53;3.73;;;1.90;1.00;;;;;;5084367;28;20201;-58
2022/02/13 03:47:46;;;;;;;7.97;4.00;;;1.90;1.00;;;;;;5088362;28;20204;-57
2022/02/13 03:50:14;;;;;;;4.57;3.07;;;2.00;1.00;;;;;;5084110;28;20259;-58
2022/02/13 03:52:41;;;;;;;7.83;3.77;;;1.90;1.00;;;;;;5087609;28;20197;-56
2022/02/13 03:55:13;;;;;;;6.67;4.00;;;1.90;1.00;;;;;;5094569;28;20225;-58
2022/02/13 03:57:40;;;;;;;4.80;3.47;;;1.90;1.00;;;;;;5085171;28;20284;-58
2022/02/13 04:00:08;;;;;;;5.47;3.90;;;1.90;1.00;;;;;;5088262;28;20238;-58
2022/02/13 04:02:35;;;;;;;6.23;3.43;;;1.80;1.00;;;;;;5089310;28;20194;-56
2022/02/13 04:05:02;;;;;;;7.33;3.60;;;1.90;1.00;;;;;;5060659;28;20214;-57
2022/02/13 04:07:29;;;;;;;8.33;3.87;;;1.90;1.00;;;;;;5087896;28;20204;-56
2022/02/13 04:09:56;;;;;;;8.20;3.50;;;1.90;1.00;;;;;;5084079;28;20312;-57
2022/02/13 04:12:24;;;;;;;5.57;3.50;;;1.90;1.00;;;;;;5095651;28;20211;-58
2022/02/13 04:14:51;;;;;;;6.33;3.17;;;1.90;1.00;;;;;;5093472;28;20198;-56
2022/02/13 04:17:19;;;;;;;5.70;3.30;;;2.00;1.00;;;;;;5087724;28;20213;-60
2022/02/13 04:19:47;;;;;;;6.93;4.10;;;1.90;1.00;;;;;;5083753;28;20651;-58
2022/02/13 04:22:13;;;;;;;7.00;3.53;;;1.90;1.00;;;;;;5088869;28;20612;-55
2022/02/13 04:24:40;;;;;;;5.97;3.60;;;2.00;1.00;;;;;;5085357;28;20324;-55
2022/02/13 04:27:07;;;;;;;5.67;3.90;;;1.90;1.00;;;;;;5094719;28;20630;-57
2022/02/13 04:29:34;;;;;;;7.53;4.10;;;2.00;1.00;;;;;;5092181;28;20266;-55
2022/02/13 04:32:01;;;;;;;5.00;3.50;;;2.00;1.00;;;;;;5095429;28;20212;-55
2022/02/13 04:34:28;;;;;;;6.33;3.60;;;1.90;1.00;;;;;;5091223;28;20727;-56
2022/02/13 04:36:54;;;;;;;6.97;4.20;;;1.90;1.00;;;;;;5075710;28;20696;-55
2022/02/13 04:39:22;;;;;;;5.30;3.87;;;1.90;1.00;;;;;;5090228;28;20204;-55
2022/02/13 04:41:49;;;;;;;8.57;4.63;;;1.90;1.00;;;;;;5094472;28;20665;-57
2022/02/13 04:44:15;;;;;;;5.93;4.10;;;1.90;1.00;;;;;;5094023;28;20892;-58
2022/02/13 04:46:42;;;;;;;6.13;3.77;;;2.00;1.00;;;;;;5093618;28;20216;-58
2022/02/13 04:49:09;;;;;;;6.43;3.83;;;2.00;1.00;;;;;;5092505;28;20318;-57
2022/02/13 04:51:36;;;;;;;5.67;3.97;;;1.90;1.00;;;;;;5092117;28;20220;-56
2022/02/13 04:54:03;;;;;;;9.47;3.77;;;1.80;1.00;;;;;;5090608;28;21301;-55
2022/02/13 04:56:30;;;;;;;6.80;3.47;;;1.80;1.00;;;;;;5092712;28;20209;-55
2022/02/13 04:58:57;;;;;;;7.90;3.63;;;1.90;1.00;;;;;;5090096;28;20712;-57
2022/02/13 05:01:24;;;;;;;6.90;4.03;;;1.80;1.00;;;;;;5088824;28;20673;-56
2022/02/13 05:03:51;;;;;;;8.87;4.47;;;1.80;1.00;;;;;;5074237;28;20258;-55
2022/02/13 05:06:18;;;;;;;7.43;3.80;;;1.80;1.00;;;;;;5092389;28;20658;-55
2022/02/13 05:08:45;;;;;;;7.57;3.80;;;1.80;1.00;;;;;;5074830;28;20289;-57
2022/02/13 05:11:11;;;;;;;5.97;3.83;;;1.90;1.00;;;;;;5089988;28;20233;-55
2022/02/13 05:13:38;;;;;;;8.80;3.80;;;1.90;1.00;;;;;;5094447;28;20228;-55
2022/02/13 05:16:05;;;;;;;5.13;4.17;;;2.00;1.00;;;;;;5090892;28;20736;-58
2022/02/13 05:18:33;;;;;;;7.20;4.03;;;1.90;1.00;;;;;;5092747;28;21014;-57
2022/02/13 05:21:00;;;;;;;7.80;3.80;;;2.00;1.00;;;;;;5093186;28;20675;-57
2022/02/13 05:23:27;;;;;;;6.00;3.60;;;1.90;1.00;;;;;;5093337;28;20249;-55
2022/02/13 05:25:54;;;;;;;6.37;3.63;;;1.90;1.00;;;;;;5074820;28;20217;-56
2022/02/13 05:28:20;;;;;;;8.90;3.77;;;2.00;1.00;;;;;;5081563;28;20233;-57
2022/02/13 05:30:47;;;;;;;4.97;3.90;;;2.00;1.00;;;;;;5056269;28;20658;-58
2022/02/13 05:33:14;;;;;;;7.53;4.17;;;2.00;1.00;;;;;;5082669;28;20818;-56
2022/02/13 05:35:41;;;;;;;5.77;3.67;;;1.90;1.00;;;;;;5082139;28;20297;-57
2022/02/13 05:38:08;;;;;;;9.97;4.13;;;1.90;1.00;;;;;;5063699;28;20311;-56
2022/02/13 05:40:34;;;;;;;5.40;3.30;;;1.90;1.00;;;;;;5062481;28;20243;-56
2022/02/13 05:43:01;;;;;;;6.33;3.87;;;1.90;1.00;;;;;;5079138;28;20232;-57
2022/02/13 05:45:28;;;;;;;5.23;3.00;;;1.90;1.00;;;;;;5079768;28;20405;-56
2022/02/13 05:47:55;;;;;;;6.30;4.10;;;1.90;1.00;;;;;;5080873;28;20289;-57
2022/02/13 05:50:22;;;;;;;8.07;3.53;;;1.90;1.00;;;;;;5057222;28;20309;-58
2022/02/13 05:52:49;;;;;;;5.80;3.67;;;1.90;1.00;;;;;;5077018;28;20261;-56
2022/02/13 05:55:15;;;;;;;7.67;3.80;;;2.00;1.00;;;;;;5047857;28;20614;-57
2022/02/13 05:57:44;;;;;;;5.63;3.73;;;2.00;1.00;;;;;;5051799;28;20203;-58
2022/02/13 06:00:13;;;;;;;8.47;3.33;;;2.00;1.00;;;;;;5063634;28;20370;-55
2022/02/13 06:02:40;;;;;;;3.87;3.43;;;2.00;1.00;;;;;;5082960;28;20238;-57
2022/02/13 06:05:09;;;;;;;5.20;3.60;;;2.00;1.00;;;;;;5057435;28;20440;-57
2022/02/13 06:07:42;;;;;;;6.57;3.40;;;1.90;1.00;;;;;;5082523;28;20685;-58
2022/02/13 06:10:10;;;;;;;4.60;3.33;;;1.90;1.00;;;;;;5080535;28;20307;-59
2022/02/13 06:12:37;;;;;;;7.10;3.70;;;1.90;1.00;;;;;;5084354;28;20241;-57
2022/02/13 06:15:07;;;;;;;6.00;4.20;;;2.00;1.00;;;;;;5086128;28;20233;-56
2022/02/13 06:17:34;;;;;;;11.53;4.50;;;1.90;1.00;;;;;;5082980;28;20617;-57
2022/02/13 06:20:02;;;;;;;6.57;3.67;;;2.00;1.00;;;;;;5083194;28;20205;-57
2022/02/13 06:22:29;;;;;;;5.93;3.70;;;2.00;1.00;;;;;;5067216;28;20206;-55
2022/02/13 06:24:56;;;;;;;3.67;3.20;;;2.10;1.00;;;;;;5083539;28;20335;-59
2022/02/13 06:27:22;;;;;;;7.47;3.87;;;2.00;1.00;;;;;;5084649;28;20229;-56
2022/02/13 06:29:49;;;;;;;4.40;3.53;;;1.90;1.00;;;;;;5082843;28;20248;-56
2022/02/13 06:32:19;;;;;;;5.93;3.83;;;1.90;1.00;;;;;;5084136;28;20219;-54
2022/02/13 06:34:46;;;;;;;6.00;3.67;;;1.90;1.00;;;;;;5084426;28;20353;-57
2022/02/13 06:37:13;;;;;;;7.00;4.13;;;1.90;1.00;;;;;;5087227;28;20245;-56
2022/02/13 06:39:40;;;;;;;5.73;3.53;;;2.00;1.00;;;;;;5081885;28;20208;-58
2022/02/13 06:42:07;;;;;;;6.33;3.90;;;1.90;1.00;;;;;;5084149;28;20714;-55
2022/02/13 06:44:33;;;;;;;3.83;3.07;;;1.90;1.00;;;;;;5084067;28;20334;-56
2022/02/13 06:47:00;;;;;;;4.97;3.60;;;1.90;1.00;;;;;;5083201;28;20230;-57
2022/02/13 06:49:27;;;;;;;5.00;3.30;;;2.00;1.00;;;;;;5066701;28;20237;-57
2022/02/13 06:51:54;;;;;;;6.30;3.53;;;2.00;1.00;;;;;;5082682;28;20221;-57
2022/02/13 06:54:21;;;;;;;6.53;3.70;;;2.00;1.00;;;;;;5083149;28;20606;-57
2022/02/13 06:56:47;;;;;;;6.63;3.30;;;2.10;1.00;;;;;;5058995;28;20252;-55
2022/02/13 06:59:15;;;;;;;4.43;3.10;;;2.10;1.00;;;;;;5078419;28;20260;-56
2022/02/13 07:01:42;;;;;;;7.73;3.23;;;2.10;1.00;;;;;;5079135;28;20756;-57
2022/02/13 07:04:09;;;;;;;5.43;3.17;;;2.10;1.00;;;;;;5065655;28;20242;-57
2022/02/13 07:06:36;;;;;;;6.47;3.80;;;2.00;1.00;;;;;;5081631;28;20202;-57
2022/02/13 07:09:04;;;;;;;4.33;3.23;;;2.10;1.00;;;;;;5084374;28;20243;-56
2022/02/13 07:11:31;;;;;;;4.60;3.67;;;2.10;1.00;;;;;;5072182;28;20215;-52
2022/02/13 07:13:58;;;;;;;9.60;4.00;;;2.10;1.00;;;;;;5083900;28;20589;-53
2022/02/13 07:16:25;;;;;;;5.43;3.57;;;2.10;1.00;;;;;;5085874;28;20194;-52
2022/02/13 07:18:52;;;;;;;5.23;3.50;;;2.20;1.00;;;;;;5082472;28;20207;-56
2022/02/13 07:21:19;;;;;;;5.40;3.73;;;2.20;1.00;;;;;;5073710;28;20293;-53
2022/02/13 07:23:46;;;;;;;4.23;3.33;;;2.20;1.00;;;;;;5062410;28;20294;-52
2022/02/13 07:26:13;;;;;;;5.20;3.33;;;2.20;1.00;;;;;;5077901;28;20239;-53
2022/02/13 07:31:27;;;;;;;5.17;3.60;;;2.30;1.00;;;;;;5080724;28;20299;-60
2022/02/13 07:33:55;;;;;;;5.80;4.00;;;2.30;1.00;;;;;;5082881;28;20494;-54
2022/02/13 07:36:22;;;;;;;5.93;3.60;;;2.40;1.00;;;;;;5080374;28;20751;-55
2022/02/13 07:38:49;;;;;;;6.67;4.17;;;2.40;1.00;;;;;;5081544;28;20589;-51
2022/02/13 07:41:18;;;;;;;4.63;3.80;;;2.50;1.00;;;;;;5063332;28;20202;-54
2022/02/13 07:43:45;;;;;;;5.83;3.60;;;2.50;1.00;;;;;;5085541;28;20988;-55
2022/02/13 07:46:12;;;;;;;4.83;3.63;;;2.50;1.00;;;;;;5082329;28;20201;-52
2022/02/13 07:48:39;;;;;;;6.83;3.30;;;2.50;1.00;;;;;;5085773;28;20658;-52
2022/02/13 07:51:06;;;;;;;6.63;4.17;;;2.50;1.00;;;;;;5081225;28;20233;-54
2022/02/13 07:53:32;;;;;;;6.20;3.73;;;2.50;1.00;;;;;;5083681;28;20690;-52
2022/02/13 07:55:59;;;;;;;6.97;4.27;;;2.50;1.00;;;;;;5082756;28;20686;-55
2022/02/13 07:58:30;;;;;;;6.83;4.13;;;2.60;1.00;;;;;;5079972;28;20302;-57
2022/02/13 08:01:06;;;;;;;7.30;4.03;;;2.50;1.00;;;;;;5065564;28;20220;-53
2022/02/13 08:03:37;;;;;;;6.07;3.87;;;2.60;1.00;;;;;;5081595;28;20614;-52
2022/02/13 08:06:05;;;;;;;4.23;3.43;;;2.70;1.00;;;;;;5074374;28;20202;-52
2022/02/13 08:08:36;;;;;;;7.23;4.03;;;2.70;1.00;;;;;;5078762;28;20256;-52
2022/02/13 08:11:07;;;;;;;4.40;3.50;;;2.70;1.00;;;;;;5079494;28;20228;-57
2022/02/13 08:13:34;;;;;;;7.33;4.20;;;2.80;1.00;;;;;;5082358;28;20216;-53
2022/02/13 08:16:01;;;;;;;5.70;3.70;;;2.80;1.00;;;;;;5081382;28;20653;-55
2022/02/13 08:18:28;;;;;;;6.33;3.57;;;2.90;1.00;;;;;;5082202;28;20223;-53
2022/02/13 08:20:55;;;;;;;7.37;3.30;;;3.00;1.00;;;;;;5080634;28;20627;-53
2022/02/13 08:23:22;;;;;;;7.23;4.80;;;3.00;1.00;;;;;;5082681;28;20238;-54
2022/02/13 08:25:51;;;;;;;8.63;3.50;;;3.00;1.00;;;;;;5074602;28;20303;-50
2022/02/13 08:28:18;;;;;;;5.63;3.57;;;3.10;1.00;;;;;;5084088;28;20206;-53
2022/02/13 08:30:46;;;;;;;5.27;3.90;;;3.10;1.00;;;;;;5082399;28;20208;-55
2022/02/13 08:33:15;;;;;;;6.33;3.63;;;3.30;1.00;;;;;;5082506;28;20221;-53
2022/02/13 08:35:42;;;;;;;5.13;3.57;;;3.40;1.00;;;;;;5081190;28;20264;-54
2022/02/13 08:38:09;;;;;;;5.53;3.87;;;3.60;1.00;;;;;;5078301;28;20592;-55
2022/02/13 08:40:36;;;;;;;8.87;4.00;;;3.70;1.00;;;;;;5079940;28;20620;-51
2022/02/13 08:43:04;;;;;;;5.27;3.43;;;3.80;1.00;;;;;;5081615;28;20245;-53
2022/02/13 08:45:31;;;;;;;6.33;3.50;;;3.90;1.00;;;;;;5079472;28;20201;-54
2022/02/13 08:47:58;;;;;;;4.90;3.50;;;4.00;99.90;;;;;;5081580;28;20213;-54
2022/02/13 08:50:26;;;;;;;7.00;3.70;;;4.10;99.90;;;;;;5079038;28;20785;-51
2022/02/13 08:52:53;;;;;;;5.60;3.80;;;4.40;99.90;;;;;;5079493;28;20342;-54
2022/02/13 08:55:21;;;;;;;6.10;4.03;;;4.40;99.90;;;;;;5078606;28;20275;-53
2022/02/13 08:57:49;;;;;;;4.20;3.60;;;4.40;99.90;;;;;;5080227;28;20244;-54
2022/02/13 09:00:17;;;;;;;3.93;3.13;;;4.40;99.90;;;;;;5079161;28;20196;-56
2022/02/13 09:02:45;;;;;;;8.23;4.67;;;4.50;99.90;;;;;;5075153;28;20280;-53
2022/02/13 09:05:12;;;;;;;6.50;3.73;;;4.50;99.90;;;;;;5064252;28;20202;-54
2022/02/13 09:07:40;;;;;;;5.80;3.17;;;4.50;99.90;;;;;;5063779;28;20210;-54
2022/02/13 09:10:12;;;;;;;7.47;4.03;;;4.60;99.90;;;;;;5080351;28;20381;-53
2022/02/13 09:12:39;;;;;;;5.63;3.30;;;4.60;99.90;;;;;;5082407;28;20341;-53
2022/02/13 09:15:07;;;;;;;5.50;4.00;;;4.80;99.90;;;;;;5059006;28;20294;-53
2022/02/13 09:17:34;;;;;;;4.97;3.83;;;4.80;96.40;;;;;;5081795;28;20203;-53
2022/02/13 09:20:03;;;;;;;4.20;3.47;;;4.90;99.90;;;;;;5064860;28;20205;-54
2022/02/13 09:22:32;;;;;;;7.63;3.50;;;5.20;99.90;;;;;;5082281;28;20195;-52
2022/02/13 09:24:59;;;;;;;6.57;3.90;;;5.20;1.00;;;;;;5077410;28;20274;-52
2022/02/13 09:27:26;;;;;;;10.17;3.70;;;5.20;91.50;;;;;;5077247;28;20725;-52
2022/02/13 09:29:54;;;;;;;5.17;3.83;;;5.30;28.30;;;;;;5080530;28;20198;-56
2022/02/13 09:32:23;;;;;;;5.00;3.80;;;5.30;43.70;;;;;;5081000;28;20663;-56
2022/02/13 09:34:49;;;;;;;6.93;3.93;;;5.40;66.40;;;;;;5081208;28;22217;-52
2022/02/13 09:37:17;;;;;;;4.47;3.20;;;5.50;1.00;;;;;;5081648;28;20230;-55
2022/02/13 09:39:49;;;;;;;5.83;3.57;;;5.50;1.00;;;;;;5081305;28;20549;-53
2022/02/13 09:42:21;;;;;;;6.00;3.87;;;5.60;1.00;;;;;;5080829;28;20221;-54
2022/02/13 09:44:48;;;;;;;5.27;3.60;;;5.50;1.00;;;;;;5081820;28;20290;-55
2022/02/13 09:47:20;;;;;;;5.73;3.70;;;5.70;1.00;;;;;;5079971;28;20232;-56
2022/02/13 09:49:47;;;;;;;10.10;4.00;;;5.70;1.00;;;;;;5062423;28;20249;-56
2022/02/13 09:52:15;;;;;;;5.47;3.50;;;5.80;1.00;;;;;;5086789;28;20306;-55
2022/02/13 09:54:42;;;;;;;4.97;3.40;;;5.70;1.00;;;;;;5073622;28;20683;-55
2022/02/13 09:59:56;;;;;;;3.93;2.93;;;5.80;1.00;;;;;;5069970;28;20269;-55
2022/02/13 10:02:38;;;;;;;4.60;3.50;;;5.70;1.00;;;;;;5085512;28;20199;-55
2022/02/13 10:05:08;;;;;;;5.63;3.43;;;5.90;1.00;;;;;;5085477;28;20206;-56
2022/02/13 10:07:36;;;;;;;4.47;3.60;;;5.90;1.00;;;;;;5081933;28;20203;-56
2022/02/13 10:10:06;;;;;;;6.17;3.57;;;5.90;1.00;;;;;;5083318;28;20222;-56
2022/02/13 10:12:43;;;;;;;6.30;3.97;;;5.90;1.00;;;;;;5060658;28;20740;-56
2022/02/13 10:15:22;;;;;;;5.43;3.47;;;6.10;1.00;;;;;;5086170;28;20281;-57
2022/02/13 10:17:58;;;;;;;6.80;3.90;;;6.30;1.00;;;;;;5086364;28;20636;-56
2022/02/13 10:20:27;;;;;;;4.93;3.67;;;6.60;1.00;;;;;;5083558;28;20252;-56
2022/02/13 10:22:54;;;;;;;4.67;2.87;;;6.30;1.00;;;;;;5082273;28;20199;-55
2022/02/13 10:25:21;;;;;;;4.67;3.00;;;6.30;1.00;;;;;;5083457;28;20285;-56
2022/02/13 10:27:49;;;;;;;5.43;3.07;;;6.30;1.00;;;;;;5062631;28;20211;-56
2022/02/13 10:30:34;;;;;;;5.43;3.30;;;6.50;1.00;;;;;;5086911;28;20265;-55
2022/02/13 10:33:17;;;;;;;4.73;2.93;;;6.50;1.00;;;;;;5076997;28;20253;-57
2022/02/13 10:36:08;;;;;;;4.60;3.20;;;6.40;1.00;;;;;;5086101;28;20194;-55
2022/02/13 10:38:37;;;;;;;4.10;3.67;;;6.40;1.00;;;;;;5084722;28;20199;-55
2022/02/13 10:41:11;;;;;;;4.33;3.77;;;6.40;1.00;;;;;;5066396;28;20307;-55
2022/02/13 10:44:07;;;;;;;3.87;3.40;;;6.60;1.00;;;;;;5083959;28;20329;-55
2022/02/13 10:46:37;;;;;;;6.20;3.63;;;6.70;1.00;;;;;;5080975;28;20222;-56
2022/02/13 10:49:11;;;;;;;3.87;3.17;;;6.90;1.00;;;;;;5079138;28;20210;-55
2022/02/13 10:51:38;;;;;;;4.43;3.37;;;7.00;1.00;;;;;;5084614;28;20294;-56
2022/02/13 10:54:05;;;;;;;4.60;3.13;;;7.10;1.00;;;;;;5077230;28;20827;-55
2022/02/13 10:56:35;;;;;;;6.13;3.90;;;7.00;1.00;;;;;;5084958;28;20234;-56
2022/02/13 10:59:03;;;;;;;4.23;3.30;;;7.30;1.00;;;;;;5085379;28;20201;-57
2022/02/13 11:01:32;;;;;;;4.40;3.27;;;7.60;1.00;;;;;;5082411;28;20652;-56
2022/02/13 11:04:03;;;;;;;4.57;3.20;;;7.50;1.00;;;;;;5088045;28;20200;-56
2022/02/13 11:06:35;;;;;;;6.10;4.20;;;7.50;1.00;;;;;;5067663;28;20204;-56
2022/02/13 11:09:10;;;;;;;4.87;3.93;;;7.30;1.00;;;;;;5081589;28;20262;-56
2022/02/13 11:11:43;;;;;;;5.13;3.70;;;7.30;1.00;;;;;;5084420;28;20639;-57
2022/02/13 11:14:41;;;;;;;4.67;3.43;;;7.30;1.00;;;;;;5086156;28;20692;-56
2022/02/13 11:17:09;;;;;;;4.50;3.30;;;7.40;1.00;;;;;;5087062;28;20305;-57
2022/02/13 11:19:42;;;;;;;5.67;4.40;;;7.40;1.00;;;;;;5085372;28;21532;-56
2022/02/13 11:22:09;;;;;;;4.37;3.60;;;7.50;1.00;;;;;;5083239;28;20199;-56
2022/02/13 11:24:36;;;;;;;5.80;3.80;;;7.60;1.00;;;;;;5060865;28;20314;-57
2022/02/13 11:27:06;;;;;;;8.93;4.23;;;7.60;1.00;;;;;;5083731;28;20267;-56
2022/02/13 11:29:57;;;;;;;5.93;3.90;;;7.80;1.00;;;;;;5083945;28;20209;-57
2022/02/13 11:32:42;;;;;;;5.50;3.73;;;8.00;1.00;;;;;;5076819;28;20244;-57
2022/02/13 11:35:12;;;;;;;5.37;3.43;;;8.20;1.00;;;;;;5084869;28;20197;-57
2022/02/13 11:37:44;;;;;;;5.00;3.60;;;8.30;1.00;;;;;;5083992;28;20199;-57
2022/02/13 11:40:33;;;;;;;5.60;3.97;;;8.30;1.00;;;;;;5082241;28;20682;-58
2022/02/13 11:43:01;;;;;;;3.87;3.17;;;8.50;1.00;;;;;;5084281;28;20711;-61
2022/02/13 11:45:44;;;;;;;4.20;3.73;;;8.50;1.00;;;;;;5077406;28;20217;-57
2022/02/13 11:48:33;;;;;;;5.27;3.70;;;8.60;1.00;;;;;;5083685;28;20689;-56
2022/02/13 11:51:00;;;;;;;4.20;3.40;;;8.70;1.00;;;;;;5084613;28;20207;-57
2022/02/13 11:53:28;;;;;;;6.30;3.60;;;9.00;99.90;;;;;;5085605;28;20303;-57
2022/02/13 11:56:27;;;;;;;5.47;3.60;;;8.90;1.00;;;;;;5085294;28;20208;-58
2022/02/13 11:58:56;;;;;;;5.23;3.70;;;9.10;1.00;;;;;;5086308;28;20543;-58
2022/02/13 12:01:44;;;;;;;7.37;4.07;;;9.00;99.90;;;;;;5085902;28;20487;-57
2022/02/13 12:04:12;;;;;;;3.90;3.50;;;9.20;99.90;;;;;;5078578;28;20210;-56
2022/02/13 12:06:38;;;;;;;5.67;3.67;;;8.90;99.90;;;;;;5077885;28;20757;-57
2022/02/13 12:09:08;;;;;;;4.57;3.47;;;8.70;99.90;;;;;;5079108;28;20254;-56
2022/02/13 12:11:43;;;;;;;5.57;3.83;;;8.80;99.90;;;;;;5079845;28;20659;-58
2022/02/13 12:14:23;;;;;;;5.87;4.17;;;8.90;99.90;;;;;;5081677;28;20582;-58
2022/02/13 12:16:55;;;;;;;5.37;3.73;;;9.30;99.90;;;;;;5079565;28;20274;-57
2022/02/13 12:19:26;;;;;;;7.63;4.60;;;9.20;99.90;;;;;;5066892;28;20195;-58
2022/02/13 12:22:07;;;;;;;5.67;3.33;;;9.20;99.90;;;;;;5067997;28;20286;-58
2022/02/13 12:24:34;;;;;;;4.17;3.33;;;9.10;84.20;;;;;;5073504;28;20255;-57
2022/02/13 12:27:02;;;;;;;4.27;3.47;;;9.00;99.90;;;;;;5053449;28;20212;-58
2022/02/13 12:29:29;;;;;;;5.47;3.33;;;9.00;99.90;;;;;;5062585;28;20200;-55
2022/02/13 12:32:11;;;;;;;5.03;3.57;;;9.00;99.90;;;;;;5057490;28;20677;-56
2022/02/13 12:34:54;;;;;;;5.47;3.67;;;9.00;99.90;;;;;;5055808;28;20380;-57
2022/02/13 12:37:44;;;;;;;7.77;3.27;;;9.10;1.00;;;;;;5055310;28;21273;-58
2022/02/13 12:40:32;;;;;;;4.67;3.37;;;9.00;1.00;;;;;;5052961;28;20248;-57
2022/02/13 12:43:06;;;;;;;4.03;3.20;;;9.30;1.00;;;;;;5058538;28;20206;-57
2022/02/13 12:45:35;;;;;;;4.97;3.50;;;9.30;1.00;;;;;;5056912;28;20554;-58
2022/02/13 12:48:04;;;;;;;5.03;3.33;;;9.40;1.00;;;;;;5055896;28;20604;-57
2022/02/13 12:50:34;;;;;;;4.73;3.60;;;9.50;1.00;;;;;;5058087;28;20202;-56
2022/02/13 12:53:06;;;;;;;3.90;2.93;;;9.50;1.00;;;;;;5056982;28;20306;-56
2022/02/13 12:55:34;;;;;;;4.83;3.30;;;9.70;1.00;;;;;;5053489;28;20200;-56
2022/02/13 12:58:01;;;;;;;4.03;2.80;;;10.00;1.00;;;;;;5056775;28;20700;-56
2022/02/13 13:00:34;;;;;;;5.13;3.33;;;10.00;99.90;;;;;;5052572;28;20279;-56
2022/02/13 13:03:27;;;;;;;4.60;3.17;;;10.20;1.00;;;;;;5040578;28;20322;-56
2022/02/13 13:05:54;;;;;;;3.77;2.87;;;10.50;1.00;;;;;;5055193;28;20204;-57
2022/02/13 13:08:42;;;;;;;5.20;3.43;;;10.60;1.00;;;;;;5050526;28;20246;-56
2022/02/13 13:11:09;;;;;;;5.30;3.07;;;10.20;1.00;;;;;;5051994;28;20235;-59
2022/02/13 13:13:38;;;;;;;3.67;3.17;;;10.20;99.90;;;;;;5056866;28;20571;-56
2022/02/13 13:16:21;;;;;;;5.00;3.50;;;10.10;21.10;;;;;;5055011;28;20209;-57
2022/02/13 13:18:56;;;;;;;4.57;3.40;;;10.10;1.00;;;;;;5056756;28;20192;-58
2022/02/13 13:21:35;;;;;;;8.27;3.60;;;9.80;1.00;;;;;;5053737;28;20273;-60